createdAt,value
2019-02-11T00:01:10.542Z,50.43
2019-02-11T00:02:13.995Z,50.42
2019-02-11T00:03:16.234Z,50.43
2019-02-11T00:04:18.437Z,50.42
2019-02-11T00:05:20.679Z,50.41
2019-02-11T00:06:22.903Z,50.39
2019-02-11T00:07:25.105Z,50.41
2019-02-11T00:08:27.325Z,50.40
2019-02-11T00:09:29.543Z,50.42
2019-02-11T00:10:31.767Z,50.42
2019-02-11T00:11:33.981Z,50.42
2019-02-11T00:12:36.188Z,50.40
2019-02-11T00:13:38.421Z,50.40
2019-02-11T00:14:40.705Z,50.40
2019-02-11T00:15:42.937Z,50.40
2019-02-11T00:16:45.171Z,50.41
2019-02-11T00:17:47.368Z,50.40
2019-02-11T00:18:49.665Z,50.41
2019-02-11T00:19:51.880Z,50.40
2019-02-11T00:20:54.083Z,50.39
2019-02-11T00:21:56.289Z,50.37
2019-02-11T00:22:58.499Z,50.38
2019-02-11T00:24:00.732Z,50.38
2019-02-11T00:25:03.042Z,50.36
2019-02-11T00:26:05.432Z,50.40
2019-02-11T00:27:07.635Z,50.39
2019-02-11T00:28:09.844Z,50.38
2019-02-11T00:29:12.067Z,50.40
2019-02-11T00:30:14.270Z,50.39
2019-02-11T00:31:16.935Z,50.40
2019-02-11T00:32:19.096Z,50.40
2019-02-11T00:33:21.323Z,50.39
2019-02-11T00:34:23.558Z,50.36
2019-02-11T00:35:25.775Z,50.39
2019-02-11T00:36:30.847Z,50.39
2019-02-11T00:37:35.780Z,50.40
2019-02-11T00:38:38.011Z,50.41
2019-02-11T00:39:40.225Z,50.42
2019-02-11T00:40:42.427Z,50.42
2019-02-11T00:41:44.632Z,50.41
2019-02-11T00:42:47.085Z,50.41
2019-02-11T00:43:49.294Z,50.41
2019-02-11T00:44:51.546Z,50.41
2019-02-11T00:45:53.749Z,50.41
2019-02-11T00:46:55.961Z,50.41
2019-02-11T00:47:58.180Z,50.41
2019-02-11T00:49:00.436Z,50.42
2019-02-11T00:50:02.626Z,50.41
2019-02-11T00:51:04.835Z,50.43
2019-02-11T00:52:06.958Z,50.42
2019-02-11T00:53:09.164Z,50.41
2019-02-11T00:54:11.371Z,50.40
2019-02-11T00:55:13.804Z,50.42
2019-02-11T00:56:19.058Z,50.42
2019-02-11T00:57:21.270Z,50.44
2019-02-11T00:58:23.496Z,50.44
2019-02-11T00:59:25.692Z,50.45
2019-02-11T01:00:27.937Z,50.43
2019-02-11T01:01:30.147Z,50.42
2019-02-11T01:02:32.354Z,50.43
2019-02-11T01:03:34.582Z,50.44
2019-02-11T01:04:36.781Z,50.45
2019-02-11T01:05:39.011Z,50.45
2019-02-11T01:06:41.224Z,50.45
2019-02-11T01:07:43.431Z,50.47
2019-02-11T01:08:45.646Z,50.45
2019-02-11T01:09:48.384Z,50.46
2019-02-11T01:10:50.637Z,50.48
2019-02-11T01:11:53.154Z,50.46
2019-02-11T01:12:55.357Z,50.45
2019-02-11T01:13:57.652Z,50.44
2019-02-11T01:14:59.833Z,50.48
2019-02-11T01:16:04.127Z,50.48
2019-02-11T01:17:06.375Z,50.50
2019-02-11T01:18:08.555Z,50.51
2019-02-11T01:19:10.789Z,50.52
2019-02-11T01:20:12.990Z,50.47
2019-02-11T01:21:15.151Z,50.48
2019-02-11T01:22:17.353Z,50.50
2019-02-11T01:23:19.575Z,50.51
2019-02-11T01:24:21.799Z,50.49
2019-02-11T01:25:23.999Z,50.51
2019-02-11T01:26:26.319Z,50.51
2019-02-11T01:27:28.530Z,50.49
2019-02-11T01:28:30.773Z,50.52
2019-02-11T01:29:32.968Z,50.52
2019-02-11T01:30:35.172Z,50.50
2019-02-11T01:31:37.396Z,50.53
2019-02-11T01:32:39.603Z,50.53
2019-02-11T01:33:41.820Z,50.56
2019-02-11T01:34:44.029Z,50.52
2019-02-11T01:35:46.230Z,50.54
2019-02-11T01:36:50.420Z,50.54
2019-02-11T01:37:52.299Z,50.53
2019-02-11T01:38:54.625Z,50.54
2019-02-11T01:39:56.824Z,50.55
2019-02-11T01:40:59.033Z,50.54
2019-02-11T01:42:01.269Z,50.53
2019-02-11T01:43:03.480Z,50.54
2019-02-11T01:44:05.687Z,50.55
2019-02-11T01:45:07.905Z,50.57
2019-02-11T01:46:10.129Z,50.55
2019-02-11T01:47:12.335Z,50.58
2019-02-11T01:48:14.529Z,50.56
2019-02-11T01:49:16.743Z,50.54
2019-02-11T01:50:18.954Z,50.53
2019-02-11T01:51:21.177Z,50.55
2019-02-11T01:52:25.504Z,50.53
2019-02-11T01:53:27.812Z,50.53
2019-02-11T01:54:30.017Z,50.54
2019-02-11T01:55:32.228Z,50.54
2019-02-11T01:56:34.430Z,50.55
2019-02-11T01:57:36.668Z,50.56
2019-02-11T01:58:38.880Z,50.56
2019-02-11T01:59:41.094Z,50.58
2019-02-11T02:00:43.312Z,50.58
2019-02-11T02:01:45.522Z,50.59
2019-02-11T02:02:47.748Z,50.58
2019-02-11T02:03:49.958Z,50.56
2019-02-11T02:04:52.103Z,50.60
2019-02-11T02:05:54.313Z,50.57
2019-02-11T02:06:56.544Z,50.58
2019-02-11T02:08:01.822Z,50.58
2019-02-11T02:09:05.268Z,50.55
2019-02-11T02:10:07.466Z,50.54
2019-02-11T02:11:09.673Z,50.55
2019-02-11T02:12:11.884Z,50.56
2019-02-11T02:13:14.131Z,50.56
2019-02-11T02:14:16.339Z,50.56
2019-02-11T02:15:18.534Z,50.53
2019-02-11T02:16:23.956Z,50.57
2019-02-11T02:17:26.087Z,50.56
2019-02-11T02:18:28.315Z,50.54
2019-02-11T02:19:30.515Z,50.55
2019-02-11T02:20:34.851Z,50.55
2019-02-11T02:21:37.037Z,50.55
2019-02-11T02:22:39.230Z,50.54
2019-02-11T02:23:41.450Z,50.55
2019-02-11T02:24:43.665Z,50.56
2019-02-11T02:25:45.874Z,50.56
2019-02-11T02:26:48.097Z,50.54
2019-02-11T02:27:50.298Z,50.55
2019-02-11T02:28:52.509Z,50.55
2019-02-11T02:29:54.637Z,50.55
2019-02-11T02:30:56.896Z,50.55
2019-02-11T02:31:59.051Z,50.54
2019-02-11T02:33:01.348Z,50.55
2019-02-11T02:34:03.593Z,50.59
2019-02-11T02:35:05.777Z,50.56
2019-02-11T02:36:07.974Z,50.53
2019-02-11T02:37:10.183Z,50.54
2019-02-11T02:38:12.386Z,50.55
2019-02-11T02:39:14.622Z,50.58
2019-02-11T02:40:16.823Z,50.56
2019-02-11T02:41:19.045Z,50.56
2019-02-11T02:42:21.245Z,50.55
2019-02-11T02:43:23.457Z,50.55
2019-02-11T02:44:25.691Z,50.53
2019-02-11T02:45:27.891Z,50.50
2019-02-11T02:46:30.086Z,50.52
2019-02-11T02:47:32.286Z,50.53
2019-02-11T02:48:34.488Z,50.52
2019-02-11T02:49:36.717Z,50.54
2019-02-11T02:50:38.911Z,50.53
2019-02-11T02:51:42.116Z,50.53
2019-02-11T02:52:44.307Z,50.52
2019-02-11T02:53:46.779Z,50.53
2019-02-11T02:54:48.985Z,50.52
2019-02-11T02:55:51.193Z,50.54
2019-02-11T02:56:53.381Z,50.53
2019-02-11T02:57:55.512Z,50.55
2019-02-11T02:58:57.713Z,50.56
2019-02-11T02:59:59.946Z,50.55
2019-02-11T03:01:02.147Z,50.53
2019-02-11T03:02:04.883Z,50.54
2019-02-11T03:03:07.086Z,50.54
2019-02-11T03:04:09.285Z,50.54
2019-02-11T03:05:11.529Z,50.53
2019-02-11T03:06:13.731Z,50.52
2019-02-11T03:07:16.495Z,50.55
2019-02-11T03:08:18.707Z,50.55
2019-02-11T03:09:20.916Z,50.55
2019-02-11T03:10:23.147Z,50.54
2019-02-11T03:11:25.350Z,50.53
2019-02-11T03:12:27.582Z,50.54
2019-02-11T03:13:29.773Z,50.54
2019-02-11T03:14:31.988Z,50.53
2019-02-11T03:15:34.213Z,50.53
2019-02-11T03:16:36.345Z,50.52
2019-02-11T03:17:38.565Z,50.52
2019-02-11T03:18:40.759Z,50.52
2019-02-11T03:19:42.962Z,50.50
2019-02-11T03:20:45.177Z,50.49
2019-02-11T03:21:47.376Z,50.50
2019-02-11T03:22:49.582Z,50.48
2019-02-11T03:23:51.785Z,50.50
2019-02-11T03:24:53.993Z,50.51
2019-02-11T03:25:56.257Z,50.50
2019-02-11T03:26:58.490Z,50.49
2019-02-11T03:28:00.724Z,50.47
2019-02-11T03:29:02.908Z,50.47
2019-02-11T03:30:05.090Z,50.49
2019-02-11T03:31:07.245Z,50.47
2019-02-11T03:32:09.444Z,50.46
2019-02-11T03:33:11.647Z,50.47
2019-02-11T03:34:13.834Z,50.46
2019-02-11T03:35:16.033Z,50.47
2019-02-11T03:36:18.264Z,50.45
2019-02-11T03:37:20.455Z,50.45
2019-02-11T03:38:24.524Z,50.45
2019-02-11T03:39:26.504Z,50.46
2019-02-11T03:40:28.701Z,50.44
2019-02-11T03:41:30.923Z,50.44
2019-02-11T03:42:33.135Z,50.46
2019-02-11T03:43:35.337Z,50.46
2019-02-11T03:44:37.537Z,50.45
2019-02-11T03:45:39.736Z,50.44
2019-02-11T03:46:41.965Z,50.44
2019-02-11T03:47:44.092Z,50.44
2019-02-11T03:48:46.288Z,50.44
2019-02-11T03:49:48.487Z,50.44
2019-02-11T03:50:50.677Z,50.44
2019-02-11T03:51:52.924Z,50.45
2019-02-11T03:52:55.110Z,50.42
2019-02-11T03:53:57.308Z,50.41
2019-02-11T03:54:59.518Z,50.42
2019-02-11T03:56:01.721Z,50.42
2019-02-11T03:57:03.941Z,50.41
2019-02-11T03:58:06.152Z,50.41
2019-02-11T03:59:08.343Z,50.42
2019-02-11T04:00:11.116Z,50.42
2019-02-11T04:01:13.330Z,50.43
2019-02-11T04:02:15.577Z,50.42
2019-02-11T04:03:17.751Z,50.40
2019-02-11T04:04:22.268Z,50.39
2019-02-11T04:05:24.470Z,50.39
2019-02-11T04:06:26.595Z,50.38
2019-02-11T04:07:28.833Z,50.36
2019-02-11T04:08:31.022Z,50.37
2019-02-11T04:09:33.218Z,50.39
2019-02-11T04:10:35.418Z,50.37
2019-02-11T04:11:37.671Z,50.37
2019-02-11T04:12:39.932Z,50.37
2019-02-11T04:13:42.132Z,50.38
2019-02-11T04:14:44.326Z,50.35
2019-02-11T04:15:46.534Z,50.35
2019-02-11T04:16:48.731Z,50.36
2019-02-11T04:17:50.978Z,50.35
2019-02-11T04:18:53.198Z,50.36
2019-02-11T04:19:55.631Z,50.36
2019-02-11T04:20:57.882Z,50.35
2019-02-11T04:22:00.074Z,50.35
2019-02-11T04:23:02.311Z,50.34
2019-02-11T04:24:04.510Z,50.35
2019-02-11T04:25:06.704Z,50.35
2019-02-11T04:26:08.908Z,50.34
2019-02-11T04:27:11.094Z,50.32
2019-02-11T04:28:13.325Z,50.32
2019-02-11T04:29:15.514Z,50.33
2019-02-11T04:30:17.729Z,50.31
2019-02-11T04:31:19.927Z,50.33
2019-02-11T04:32:22.791Z,50.32
2019-02-11T04:33:24.982Z,50.33
2019-02-11T04:34:27.201Z,50.33
2019-02-11T04:35:29.391Z,50.32
2019-02-11T04:36:31.599Z,50.31
2019-02-11T04:37:33.723Z,50.32
2019-02-11T04:38:35.956Z,50.31
2019-02-11T04:39:38.157Z,50.31
2019-02-11T04:40:40.375Z,50.30
2019-02-11T04:41:42.580Z,50.29
2019-02-11T04:42:44.776Z,50.26
2019-02-11T04:43:46.983Z,50.26
2019-02-11T04:44:50.887Z,50.29
2019-02-11T04:45:53.138Z,50.27
2019-02-11T04:46:55.344Z,50.29
2019-02-11T04:47:57.582Z,50.26
2019-02-11T04:48:59.771Z,50.25
2019-02-11T04:50:01.991Z,50.28
2019-02-11T04:51:04.200Z,50.27
2019-02-11T04:52:11.019Z,50.25
2019-02-11T04:53:13.234Z,50.25
2019-02-11T04:54:15.468Z,50.25
2019-02-11T04:55:17.658Z,50.24
2019-02-11T04:56:19.864Z,50.25
2019-02-11T04:57:22.076Z,50.25
2019-02-11T04:58:24.283Z,50.25
2019-02-11T04:59:26.474Z,50.26
2019-02-11T05:00:28.672Z,50.24
2019-02-11T05:01:30.864Z,50.24
2019-02-11T05:02:33.073Z,50.24
2019-02-11T05:03:35.292Z,50.23
2019-02-11T05:04:37.483Z,50.24
2019-02-11T05:05:39.682Z,50.22
2019-02-11T05:06:41.890Z,50.23
2019-02-11T05:07:44.075Z,50.21
2019-02-11T05:08:46.294Z,50.20
2019-02-11T05:09:48.503Z,50.21
2019-02-11T05:10:50.709Z,50.20
2019-02-11T05:11:52.918Z,50.20
2019-02-11T05:12:55.119Z,50.20
2019-02-11T05:13:57.365Z,50.19
2019-02-11T05:14:59.568Z,50.21
2019-02-11T05:16:02.797Z,50.19
2019-02-11T05:17:04.979Z,50.20
2019-02-11T05:18:07.179Z,50.21
2019-02-11T05:19:09.408Z,50.19
2019-02-11T05:20:11.632Z,50.19
2019-02-11T05:21:13.835Z,50.19
2019-02-11T05:22:16.044Z,50.19
2019-02-11T05:23:18.239Z,50.17
2019-02-11T05:24:20.464Z,50.17
2019-02-11T05:25:22.663Z,50.16
2019-02-11T05:26:24.891Z,50.14
2019-02-11T05:27:27.076Z,50.12
2019-02-11T05:28:29.271Z,50.11
2019-02-11T05:29:31.562Z,50.08
2019-02-11T05:30:34.359Z,50.07
2019-02-11T05:31:36.551Z,50.06
2019-02-11T05:32:38.756Z,50.04
2019-02-11T05:33:40.956Z,50.04
2019-02-11T05:34:43.185Z,50.01
2019-02-11T05:35:45.378Z,50.00
2019-02-11T05:36:47.580Z,50.01
2019-02-11T05:37:49.804Z,50.00
2019-02-11T05:38:52.063Z,49.96
2019-02-11T05:39:54.265Z,49.97
2019-02-11T05:40:56.458Z,49.92
2019-02-11T05:41:58.649Z,49.92
2019-02-11T05:43:00.860Z,49.93
2019-02-11T05:44:05.696Z,49.97
2019-02-11T05:45:06.961Z,49.98
2019-02-11T05:46:09.170Z,49.99
2019-02-11T05:47:11.379Z,50.02
2019-02-11T05:48:13.578Z,50.04
2019-02-11T05:49:15.799Z,50.06
2019-02-11T05:50:18.033Z,50.07
2019-02-11T05:51:20.242Z,50.10
2019-02-11T05:52:22.463Z,50.12
2019-02-11T05:53:24.676Z,50.11
2019-02-11T05:54:26.987Z,50.11
2019-02-11T05:55:29.222Z,50.14
2019-02-11T05:56:31.432Z,50.13
2019-02-11T05:57:33.651Z,50.15
2019-02-11T05:58:35.856Z,50.15
2019-02-11T05:59:39.928Z,50.18
2019-02-11T06:00:41.944Z,50.19
2019-02-11T06:01:45.138Z,50.21
2019-02-11T06:02:47.343Z,50.22
2019-02-11T06:03:49.539Z,50.19
2019-02-11T06:04:51.735Z,50.18
2019-02-11T06:05:55.183Z,50.21
2019-02-11T06:06:57.355Z,50.20
2019-02-11T06:07:59.576Z,50.18
2019-02-11T06:09:02.800Z,50.18
2019-02-11T06:10:04.996Z,50.18
2019-02-11T06:11:07.223Z,50.20
2019-02-11T06:12:09.421Z,50.22
2019-02-11T06:13:11.630Z,50.20
2019-02-11T06:14:13.907Z,50.21
2019-02-11T06:15:16.127Z,50.18
2019-02-11T06:16:18.359Z,50.18
2019-02-11T06:17:20.552Z,50.16
2019-02-11T06:18:22.741Z,50.18
2019-02-11T06:19:24.966Z,50.18
2019-02-11T06:20:27.146Z,50.18
2019-02-11T06:21:29.392Z,50.18
2019-02-11T06:22:31.593Z,50.21
2019-02-11T06:23:33.726Z,50.16
2019-02-11T06:24:35.919Z,50.15
2019-02-11T06:25:38.152Z,50.17
2019-02-11T06:26:40.393Z,50.16
2019-02-11T06:27:43.139Z,50.18
2019-02-11T06:28:45.349Z,50.17
2019-02-11T06:29:47.712Z,50.17
2019-02-11T06:30:50.075Z,50.16
2019-02-11T06:31:52.261Z,50.16
2019-02-11T06:32:54.395Z,50.17
2019-02-11T06:33:56.608Z,50.18
2019-02-11T06:34:58.812Z,50.18
2019-02-11T06:36:01.021Z,50.18
2019-02-11T06:37:03.264Z,50.16
2019-02-11T06:38:06.042Z,50.17
2019-02-11T06:39:08.238Z,50.17
2019-02-11T06:40:10.436Z,50.17
2019-02-11T06:41:12.631Z,50.16
2019-02-11T06:42:14.926Z,50.16
2019-02-11T06:43:17.066Z,50.14
2019-02-11T06:44:19.193Z,50.07
2019-02-11T06:45:21.319Z,50.02
2019-02-11T06:46:23.528Z,50.00
2019-02-11T06:47:25.746Z,49.75
2019-02-11T06:48:27.952Z,49.56
2019-02-11T06:49:30.148Z,49.49
2019-02-11T06:50:35.368Z,49.52
2019-02-11T06:51:37.881Z,49.48
2019-02-11T06:52:40.132Z,49.37
2019-02-11T06:53:42.335Z,49.25
2019-02-11T06:54:44.556Z,49.11
2019-02-11T06:55:46.764Z,49.11
2019-02-11T06:56:48.968Z,49.03
2019-02-11T06:57:51.203Z,49.06
2019-02-11T06:58:53.406Z,49.06
2019-02-11T06:59:55.602Z,49.04
2019-02-11T07:00:57.826Z,49.06
2019-02-11T07:02:00.026Z,48.94
2019-02-11T07:03:02.268Z,48.96
2019-02-11T07:04:04.476Z,49.01
2019-02-11T07:05:06.686Z,48.96
2019-02-11T07:06:08.890Z,48.90
2019-02-11T07:07:11.093Z,48.96
2019-02-11T07:08:13.302Z,49.01
2019-02-11T07:09:15.433Z,48.95
2019-02-11T07:10:17.633Z,48.99
2019-02-11T07:11:19.830Z,49.00
2019-02-11T07:12:22.049Z,48.99
2019-02-11T07:13:27.343Z,49.01
2019-02-11T07:14:29.574Z,49.02
2019-02-11T07:15:31.794Z,49.06
2019-02-11T07:16:34.002Z,49.04
2019-02-11T07:17:36.152Z,49.05
2019-02-11T07:18:38.376Z,49.10
2019-02-11T07:19:40.600Z,49.12
2019-02-11T07:20:42.815Z,49.17
2019-02-11T07:21:45.016Z,49.18
2019-02-11T07:22:47.222Z,49.22
2019-02-11T07:23:49.470Z,49.22
2019-02-11T07:24:51.679Z,49.27
2019-02-11T07:25:53.885Z,49.28
2019-02-11T07:26:56.097Z,49.32
2019-02-11T07:27:58.314Z,49.36
2019-02-11T07:29:00.544Z,49.41
2019-02-11T07:30:02.777Z,49.41
2019-02-11T07:31:04.986Z,49.42
2019-02-11T07:32:07.213Z,49.43
2019-02-11T07:33:09.422Z,49.47
2019-02-11T07:34:11.577Z,49.46
2019-02-11T07:35:13.786Z,49.47
2019-02-11T07:36:17.868Z,49.50
2019-02-11T07:37:19.847Z,49.50
2019-02-11T07:38:22.069Z,49.49
2019-02-11T07:39:24.296Z,49.51
2019-02-11T07:40:26.509Z,49.53
2019-02-11T07:41:36.887Z,49.54
2019-02-11T07:43:01.518Z,49.57
2019-02-11T07:44:10.630Z,49.56
2019-02-11T07:45:29.516Z,49.58
2019-02-11T07:46:31.919Z,49.58
2019-02-11T07:47:34.125Z,49.59
2019-02-11T07:48:36.334Z,49.59
2019-02-11T07:49:38.540Z,49.57
2019-02-11T07:50:40.748Z,49.59
2019-02-11T07:51:42.956Z,49.62
2019-02-11T07:52:45.171Z,49.62
2019-02-11T07:53:47.384Z,49.62
2019-02-11T07:54:49.953Z,49.61
2019-02-11T07:55:52.184Z,49.57
2019-02-11T07:56:54.384Z,49.55
2019-02-11T07:57:56.590Z,49.53
2019-02-11T07:58:58.801Z,49.53
2019-02-11T08:00:01.008Z,49.54
2019-02-11T08:01:03.247Z,49.58
2019-02-11T08:02:07.161Z,49.61
2019-02-11T08:03:09.374Z,49.63
2019-02-11T08:04:11.583Z,49.63
2019-02-11T08:05:13.783Z,49.61
2019-02-11T08:06:16.125Z,49.63
2019-02-11T08:07:18.349Z,49.62
2019-02-11T08:08:20.529Z,49.63
2019-02-11T08:09:22.757Z,49.58
2019-02-11T08:10:24.980Z,49.58
2019-02-11T08:11:27.220Z,49.62
2019-02-11T08:12:29.417Z,49.59
2019-02-11T08:13:31.633Z,49.63
2019-02-11T08:14:33.842Z,49.64
2019-02-11T08:15:38.808Z,49.65
2019-02-11T08:16:40.059Z,49.59
2019-02-11T08:17:42.381Z,49.62
2019-02-11T08:18:44.577Z,49.59
2019-02-11T08:19:46.773Z,49.59
2019-02-11T08:20:49.244Z,49.62
2019-02-11T08:21:51.498Z,49.58
2019-02-11T08:22:53.703Z,49.63
2019-02-11T08:23:55.921Z,49.64
2019-02-11T08:24:58.050Z,49.65
2019-02-11T08:26:02.223Z,49.64
2019-02-11T08:27:04.167Z,49.64
2019-02-11T08:28:06.378Z,49.64
2019-02-11T08:29:08.574Z,49.58
2019-02-11T08:30:10.792Z,49.58
2019-02-11T08:31:14.571Z,49.58
2019-02-11T08:32:19.128Z,49.59
2019-02-11T08:33:21.532Z,49.61
2019-02-11T08:34:23.730Z,49.59
2019-02-11T08:35:25.929Z,49.60
2019-02-11T08:36:30.484Z,49.59
2019-02-11T08:37:32.721Z,49.57
2019-02-11T08:38:34.926Z,49.54
2019-02-11T08:39:37.157Z,49.56
2019-02-11T08:40:39.355Z,49.58
2019-02-11T08:41:41.597Z,49.61
2019-02-11T08:42:43.821Z,49.60
2019-02-11T08:43:46.031Z,49.59
2019-02-11T08:44:48.833Z,49.60
2019-02-11T08:45:51.039Z,49.61
2019-02-11T08:46:53.234Z,49.61
2019-02-11T08:47:55.472Z,49.63
2019-02-11T08:48:57.690Z,49.64
2019-02-11T08:49:59.993Z,49.64
2019-02-11T08:51:02.195Z,49.62
2019-02-11T08:52:04.402Z,49.62
2019-02-11T08:53:06.623Z,49.61
2019-02-11T08:54:08.842Z,49.62
2019-02-11T08:55:11.057Z,49.61
2019-02-11T08:56:13.265Z,49.59
2019-02-11T08:57:15.471Z,49.54
2019-02-11T08:58:17.681Z,49.53
2019-02-11T08:59:19.882Z,49.54
2019-02-11T09:00:22.092Z,49.52
2019-02-11T09:01:24.293Z,49.51
2019-02-11T09:02:26.495Z,49.48
2019-02-11T09:03:28.736Z,49.48
2019-02-11T09:04:30.943Z,49.48
2019-02-11T09:05:33.143Z,49.45
2019-02-11T09:06:35.411Z,49.45
2019-02-11T09:07:37.549Z,49.45
2019-02-11T09:08:39.765Z,49.44
2019-02-11T09:09:41.975Z,49.44
2019-02-11T09:10:44.182Z,49.40
2019-02-11T09:11:46.399Z,49.38
2019-02-11T09:12:48.602Z,49.38
2019-02-11T09:13:50.838Z,49.37
2019-02-11T09:14:52.972Z,49.35
2019-02-11T09:15:55.579Z,49.35
2019-02-11T09:16:57.796Z,49.33
2019-02-11T09:18:00.008Z,49.32
2019-02-11T09:19:02.239Z,49.31
2019-02-11T09:20:04.447Z,49.31
2019-02-11T09:21:06.595Z,49.31
2019-02-11T09:22:08.818Z,49.30
2019-02-11T09:23:11.015Z,49.31
2019-02-11T09:24:13.260Z,49.31
2019-02-11T09:25:15.466Z,49.28
2019-02-11T09:26:17.667Z,49.25
2019-02-11T09:27:20.198Z,49.25
2019-02-11T09:28:22.394Z,49.25
2019-02-11T09:29:24.573Z,49.25
2019-02-11T09:30:26.770Z,49.23
2019-02-11T09:31:28.989Z,49.23
2019-02-11T09:32:31.200Z,49.23
2019-02-11T09:33:33.418Z,49.22
2019-02-11T09:34:35.649Z,49.20
2019-02-11T09:35:40.690Z,49.20
2019-02-11T09:36:42.898Z,49.19
2019-02-11T09:37:45.100Z,49.17
2019-02-11T09:38:47.319Z,49.15
2019-02-11T09:39:49.555Z,49.16
2019-02-11T09:40:51.782Z,49.18
2019-02-11T09:41:54.001Z,49.18
2019-02-11T09:42:56.200Z,49.19
2019-02-11T09:43:58.416Z,49.15
2019-02-11T09:45:00.672Z,49.13
2019-02-11T09:46:04.171Z,49.13
2019-02-11T09:47:06.383Z,49.12
2019-02-11T09:48:08.591Z,49.08
2019-02-11T09:49:10.828Z,49.08
2019-02-11T09:50:13.043Z,49.10
2019-02-11T09:51:15.266Z,49.13
2019-02-11T09:52:17.413Z,49.13
2019-02-11T09:53:19.610Z,49.13
2019-02-11T09:54:21.752Z,49.14
2019-02-11T09:55:23.977Z,49.10
2019-02-11T09:56:26.191Z,49.09
2019-02-11T09:57:28.415Z,49.09
2019-02-11T09:58:30.627Z,49.08
2019-02-11T09:59:32.831Z,49.06
2019-02-11T10:00:35.076Z,49.07
2019-02-11T10:01:37.274Z,49.04
2019-02-11T10:02:39.490Z,49.04
2019-02-11T10:03:41.682Z,49.06
2019-02-11T10:04:43.881Z,49.06
2019-02-11T10:05:46.090Z,49.07
2019-02-11T10:06:48.354Z,49.04
2019-02-11T10:07:50.571Z,49.03
2019-02-11T10:08:52.773Z,49.00
2019-02-11T10:09:54.970Z,49.01
2019-02-11T10:10:57.138Z,48.99
2019-02-11T10:11:59.335Z,48.99
2019-02-11T10:13:01.548Z,48.99
2019-02-11T10:14:03.767Z,49.01
2019-02-11T10:15:05.907Z,49.00
2019-02-11T10:16:12.483Z,48.99
2019-02-11T10:17:11.992Z,48.97
2019-02-11T10:18:14.197Z,48.97
2019-02-11T10:19:16.396Z,48.95
2019-02-11T10:20:18.599Z,48.98
2019-02-11T10:21:20.866Z,48.95
2019-02-11T10:22:23.079Z,48.94
2019-02-11T10:23:25.231Z,48.94
2019-02-11T10:24:27.442Z,48.95
2019-02-11T10:25:29.627Z,48.97
2019-02-11T10:26:31.799Z,48.96
2019-02-11T10:27:34.024Z,48.94
2019-02-11T10:28:36.241Z,48.92
2019-02-11T10:29:38.440Z,48.92
2019-02-11T10:30:40.652Z,48.92
2019-02-11T10:31:42.900Z,48.91
2019-02-11T10:32:45.103Z,48.92
2019-02-11T10:33:47.324Z,48.92
2019-02-11T10:34:49.529Z,48.91
2019-02-11T10:35:52.045Z,48.94
2019-02-11T10:36:54.253Z,48.91
2019-02-11T10:37:56.388Z,48.91
2019-02-11T10:38:59.029Z,48.89
2019-02-11T10:40:01.894Z,48.91
2019-02-11T10:41:04.270Z,48.89
2019-02-11T10:42:06.497Z,48.91
2019-02-11T10:43:08.712Z,48.89
2019-02-11T10:44:10.946Z,48.86
2019-02-11T10:45:13.147Z,48.89
2019-02-11T10:46:20.839Z,48.88
2019-02-11T10:47:19.190Z,48.89
2019-02-11T10:48:21.395Z,48.87
2019-02-11T10:49:23.590Z,48.87
2019-02-11T10:50:25.798Z,48.86
2019-02-11T10:51:28.006Z,48.89
2019-02-11T10:52:30.241Z,48.87
2019-02-11T10:53:32.439Z,48.87
2019-02-11T10:54:34.671Z,48.90
2019-02-11T10:55:36.875Z,48.93
2019-02-11T10:56:39.084Z,48.88
2019-02-11T10:57:41.330Z,48.93
2019-02-11T10:58:43.530Z,48.95
2019-02-11T10:59:45.736Z,48.92
2019-02-11T11:00:51.047Z,48.95
2019-02-11T11:01:53.247Z,48.93
2019-02-11T11:02:59.368Z,48.95
2019-02-11T11:04:01.598Z,48.92
2019-02-11T11:05:03.825Z,48.89
2019-02-11T11:06:06.036Z,48.88
2019-02-11T11:07:08.546Z,48.93
2019-02-11T11:08:10.811Z,48.94
2019-02-11T11:09:15.004Z,48.92
2019-02-11T11:10:17.218Z,48.86
2019-02-11T11:11:19.443Z,48.85
2019-02-11T11:12:21.640Z,48.85
2019-02-11T11:13:23.885Z,48.89
2019-02-11T11:14:26.152Z,48.85
2019-02-11T11:15:29.010Z,48.82
2019-02-11T11:16:31.366Z,48.82
2019-02-11T11:17:33.563Z,48.85
2019-02-11T11:18:35.819Z,48.82
2019-02-11T11:19:38.034Z,48.83
2019-02-11T11:20:40.244Z,48.80
2019-02-11T11:21:42.475Z,48.79
2019-02-11T11:22:44.674Z,48.77
2019-02-11T11:23:46.913Z,48.75
2019-02-11T11:24:49.137Z,48.74
2019-02-11T11:25:51.344Z,48.77
2019-02-11T11:26:53.546Z,48.76
2019-02-11T11:27:55.767Z,48.74
2019-02-11T11:28:57.995Z,48.75
2019-02-11T11:30:00.344Z,48.76
2019-02-11T11:31:02.649Z,48.74
2019-02-11T11:32:04.863Z,48.73
2019-02-11T11:33:07.080Z,48.71
2019-02-11T11:34:09.438Z,48.70
2019-02-11T11:35:11.737Z,48.73
2019-02-11T11:36:13.935Z,48.72
2019-02-11T11:37:16.139Z,48.70
2019-02-11T11:38:18.343Z,48.70
2019-02-11T11:39:22.883Z,48.69
2019-02-11T11:40:25.102Z,48.68
2019-02-11T11:41:27.385Z,48.68
2019-02-11T11:42:29.590Z,48.72
2019-02-11T11:43:31.801Z,48.73
2019-02-11T11:44:34.008Z,48.71
2019-02-11T11:45:36.239Z,48.69
2019-02-11T11:46:46.740Z,48.70
2019-02-11T11:47:42.286Z,48.70
2019-02-11T11:48:44.515Z,48.71
2019-02-11T11:49:46.755Z,48.67
2019-02-11T11:50:49.004Z,48.67
2019-02-11T11:51:51.228Z,48.68
2019-02-11T11:52:53.450Z,48.65
2019-02-11T11:53:55.648Z,48.66
2019-02-11T11:54:57.875Z,48.65
2019-02-11T11:56:02.389Z,48.64
2019-02-11T11:57:04.148Z,48.64
2019-02-11T11:58:06.354Z,48.59
2019-02-11T11:59:08.560Z,48.59
2019-02-11T12:00:14.093Z,48.62
2019-02-11T12:01:19.280Z,48.58
2019-02-11T12:02:20.186Z,48.60
2019-02-11T12:03:22.407Z,48.59
2019-02-11T12:04:24.632Z,48.65
2019-02-11T12:05:26.851Z,48.64
2019-02-11T12:06:29.069Z,48.61
2019-02-11T12:07:31.267Z,48.62
2019-02-11T12:08:33.486Z,48.66
2019-02-11T12:09:35.708Z,48.64
2019-02-11T12:10:37.936Z,48.61
2019-02-11T12:11:40.141Z,48.58
2019-02-11T12:12:42.359Z,48.61
2019-02-11T12:13:44.553Z,48.60
2019-02-11T12:14:46.759Z,48.63
2019-02-11T12:15:49.020Z,48.63
2019-02-11T12:16:57.390Z,48.59
2019-02-11T12:17:55.105Z,48.57
2019-02-11T12:18:57.337Z,48.53
2019-02-11T12:19:59.571Z,48.50
2019-02-11T12:21:01.805Z,48.48
2019-02-11T12:22:04.022Z,48.48
2019-02-11T12:23:06.227Z,48.48
2019-02-11T12:24:08.447Z,48.47
2019-02-11T12:25:11.028Z,48.47
2019-02-11T12:26:13.250Z,48.47
2019-02-11T12:27:15.472Z,48.47
2019-02-11T12:28:17.685Z,48.44
2019-02-11T12:29:19.908Z,48.45
2019-02-11T12:30:22.163Z,48.50
2019-02-11T12:31:24.497Z,48.58
2019-02-11T12:32:26.705Z,48.63
2019-02-11T12:33:28.929Z,48.65
2019-02-11T12:34:31.125Z,48.68
2019-02-11T12:35:33.345Z,48.65
2019-02-11T12:36:35.577Z,48.59
2019-02-11T12:37:37.778Z,48.57
2019-02-11T12:38:40.000Z,48.54
2019-02-11T12:39:42.322Z,48.52
2019-02-11T12:40:44.533Z,48.51
2019-02-11T12:41:50.324Z,48.51
2019-02-11T12:42:53.874Z,48.52
2019-02-11T12:43:56.510Z,48.52
2019-02-11T12:44:58.729Z,48.54
2019-02-11T12:46:00.934Z,48.55
2019-02-11T12:47:13.998Z,48.54
2019-02-11T12:48:07.054Z,48.55
2019-02-11T12:49:09.351Z,48.54
2019-02-11T12:50:11.546Z,48.53
2019-02-11T12:51:13.844Z,48.54
2019-02-11T12:52:16.589Z,48.55
2019-02-11T12:53:18.802Z,48.57
2019-02-11T12:54:20.998Z,48.55
2019-02-11T12:55:23.212Z,48.53
2019-02-11T12:56:25.419Z,48.54
2019-02-11T12:57:27.672Z,48.54
2019-02-11T12:58:29.875Z,48.53
2019-02-11T12:59:32.204Z,48.50
2019-02-11T13:00:34.497Z,48.54
2019-02-11T13:01:36.701Z,48.53
2019-02-11T13:02:38.930Z,48.53
2019-02-11T13:03:41.339Z,48.55
2019-02-11T13:04:43.546Z,48.56
2019-02-11T13:05:46.633Z,48.57
2019-02-11T13:06:49.022Z,48.55
2019-02-11T13:07:51.284Z,48.54
2019-02-11T13:08:53.570Z,48.53
2019-02-11T13:09:55.783Z,48.52
2019-02-11T13:10:58.013Z,48.53
2019-02-11T13:12:00.216Z,48.52
2019-02-11T13:13:06.298Z,48.53
2019-02-11T13:14:09.961Z,48.53
2019-02-11T13:15:12.166Z,48.58
2019-02-11T13:16:14.417Z,48.58
2019-02-11T13:17:32.585Z,48.61
2019-02-11T13:18:20.587Z,48.66
2019-02-11T13:19:22.993Z,48.64
2019-02-11T13:20:25.221Z,48.61
2019-02-11T13:21:27.411Z,48.59
2019-02-11T13:22:29.636Z,48.55
2019-02-11T13:23:31.874Z,48.54
2019-02-11T13:24:34.075Z,48.56